Aeroporto :
LOGIN :

Iscrizione | Disclaimer

   EN    FR    IT 

 










Sommario :    VFR   VFR Marginale   IFR   IFR Intensivo   IFR Molto Intensivo
Visibilità : 
Base nubi : 
>= 8 km
>= 3000ft
5 / 8 km
1000 / 3000 ft
1500m / 5 km
500 / 1000 ft
800 / 1500m
200 / 500 ft
< 800m
< 200 ft
Simboli :   Temporali  Nebbia  Neve Forte  Precipitazioni Forti  Vento > 20 kt
SIGMETs :   Varie  Temporali  Ghiacco  Turbolenza  Onda orograficha  Ceneri Vulcaniche







- Altitudine del aeroporto : 266 ft
- Codice IATA : NCL
- Carte del aeroporto


EGNT - Newcastle

ULTIMO METAR :
  • 210150Z 07015KT 9999 -SHRA SCT010 BKN021 06/05 Q1010

METARs OBSOLETI :
  • 210050Z 07016KT 9999 BKN017 06/04 Q1010
  • 202350Z 07016KT 050V120 9999 BKN020 07/04 Q1011

TAF TAF EGNT
Valido dal 21 a 00 ore il 22 a 00 ore UTC


202259Z 2100/2124 07014KT 9999 FEW015 SCT025
TEMPO 2100/2114 7000 SHRA BKN014
PROB40
TEMPO 2100/2110 09017G27KT 4000 +SHRA BKN009
BECMG 2107/2110 13010KT
BECMG 2119/2122 VRB02KT
PROB30 2119/2122 7000
ATIS : +44 191 214 3400
Nessun NOTAM noto per questo aeroporto.
1 SIGMET conosciuto per la FIR Scottish (EGPX) :
 
Forte onda orograficha
EGPX SIGMET 01 VALID 210100/210500 EGRR
EGPX SCOTTISH FIR SEV MTW FCST WI N5500 W00525 - N5712 W00606 - N5834 W00536 - N5832 W00412 - N5656 W00353 - N5500 W00218 - N5500 W00525 FL030/120 STNR WKN=



MetMap, La meteo Aeronautica in un colpo d'occhio ! - Copyright ORBIFLY Dicembre 2007 - Disclaimer

ORBIFLY MET'MAP TEAM :

Programmazione e sviluppo : Alexandra Zaïnal
Concezione e sviluppo : Baudouin d'Aumeries
Co-Programmazione e sviluppo : Marc-Olivier Méhu
Supporto tecnico e logistico : Manuel Goepfert
Aiuto per la traduzione : Arnaldo La Scala

Contatto : metmap@orbifly.com




FONTI E CREDITI :

   NOAA